sensor_id;sensor_type;location;lat;lon;timestamp;temperature;humidity
41944;DHT22;27636;52.610;13.244;2022-08-02T00:02:27;17.50;99.90
41944;DHT22;27636;52.610;13.244;2022-08-02T00:07:30;17.60;99.90
41944;DHT22;27636;52.610;13.244;2022-08-02T00:12:37;17.60;99.90
41944;DHT22;27636;52.610;13.244;2022-08-02T00:17:42;17.70;99.90
41944;DHT22;27636;52.610;13.244;2022-08-02T00:22:45;17.80;99.90
41944;DHT22;27636;52.610;13.244;2022-08-02T00:27:48;17.90;99.90
41944;DHT22;27636;52.610;13.244;2022-08-02T00:32:52;17.90;99.90
41944;DHT22;27636;52.610;13.244;2022-08-02T00:37:55;18.00;99.90
41944;DHT22;27636;52.610;13.244;2022-08-02T00:43:03;17.90;99.90
41944;DHT22;27636;52.610;13.244;2022-08-02T00:48:11;17.90;99.90
41944;DHT22;27636;52.610;13.244;2022-08-02T00:53:14;17.90;99.90
41944;DHT22;27636;52.610;13.244;2022-08-02T00:58:17;17.90;99.90
41944;DHT22;27636;52.610;13.244;2022-08-02T01:03:21;17.90;99.90
41944;DHT22;27636;52.610;13.244;2022-08-02T01:08:25;17.70;99.90
41944;DHT22;27636;52.610;13.244;2022-08-02T01:13:33;17.60;99.90
41944;DHT22;27636;52.610;13.244;2022-08-02T01:18:42;17.70;99.90
41944;DHT22;27636;52.610;13.244;2022-08-02T01:24:11;17.70;99.90
41944;DHT22;27636;52.610;13.244;2022-08-02T01:29:23;17.80;99.90
41944;DHT22;27636;52.610;13.244;2022-08-02T01:34:33;17.90;99.90
41944;DHT22;27636;52.610;13.244;2022-08-02T01:39:39;18.00;99.90
41944;DHT22;27636;52.610;13.244;2022-08-02T01:44:45;18.00;99.90
41944;DHT22;27636;52.610;13.244;2022-08-02T01:49:53;17.90;99.90
41944;DHT22;27636;52.610;13.244;2022-08-02T01:55:02;17.90;99.90
41944;DHT22;27636;52.610;13.244;2022-08-02T02:00:08;17.80;99.90
41944;DHT22;27636;52.610;13.244;2022-08-02T02:05:15;17.90;99.90
41944;DHT22;27636;52.610;13.244;2022-08-02T02:10:23;17.70;99.90
41944;DHT22;27636;52.610;13.244;2022-08-02T02:15:29;17.70;99.90
41944;DHT22;27636;52.610;13.244;2022-08-02T02:20:32;17.80;99.90
41944;DHT22;27636;52.610;13.244;2022-08-02T02:25:37;17.90;99.90
41944;DHT22;27636;52.610;13.244;2022-08-02T02:30:48;17.80;99.90
41944;DHT22;27636;52.610;13.244;2022-08-02T02:35:52;17.80;99.90
41944;DHT22;27636;52.610;13.244;2022-08-02T02:40:57;17.70;99.90
41944;DHT22;27636;52.610;13.244;2022-08-02T02:46:05;17.50;99.90
41944;DHT22;27636;52.610;13.244;2022-08-02T02:51:10;17.10;99.90
41944;DHT22;27636;52.610;13.244;2022-08-02T02:56:16;16.70;99.90
41944;DHT22;27636;52.610;13.244;2022-08-02T03:01:21;16.60;99.90
41944;DHT22;27636;52.610;13.244;2022-08-02T03:06:52;16.60;99.90
41944;DHT22;27636;52.610;13.244;2022-08-02T03:11:55;16.90;99.90
41944;DHT22;27636;52.610;13.244;2022-08-02T03:17:00;16.90;99.90
41944;DHT22;27636;52.610;13.244;2022-08-02T03:22:03;16.80;99.90
41944;DHT22;27636;52.610;13.244;2022-08-02T03:27:06;16.70;99.90
41944;DHT22;27636;52.610;13.244;2022-08-02T03:32:11;16.70;99.90
41944;DHT22;27636;52.610;13.244;2022-08-02T03:37:15;16.70;99.90
41944;DHT22;27636;52.610;13.244;2022-08-02T03:42:18;16.40;99.90
41944;DHT22;27636;52.610;13.244;2022-08-02T03:47:23;16.10;99.90
41944;DHT22;27636;52.610;13.244;2022-08-02T03:52:27;16.10;99.90
41944;DHT22;27636;52.610;13.244;2022-08-02T03:57:31;16.20;99.90
41944;DHT22;27636;52.610;13.244;2022-08-02T04:02:36;16.50;99.90
41944;DHT22;27636;52.610;13.244;2022-08-02T04:07:40;16.60;99.90
41944;DHT22;27636;52.610;13.244;2022-08-02T04:13:03;16.70;99.90
41944;DHT22;27636;52.610;13.244;2022-08-02T04:18:07;16.80;99.90
41944;DHT22;27636;52.610;13.244;2022-08-02T04:23:11;16.80;99.90
41944;DHT22;27636;52.610;13.244;2022-08-02T04:28:16;17.00;99.90
41944;DHT22;27636;52.610;13.244;2022-08-02T04:33:21;17.30;99.90
41944;DHT22;27636;52.610;13.244;2022-08-02T04:38:25;17.60;99.90
41944;DHT22;27636;52.610;13.244;2022-08-02T04:43:28;17.80;99.90
41944;DHT22;27636;52.610;13.244;2022-08-02T04:48:32;17.80;99.90
41944;DHT22;27636;52.610;13.244;2022-08-02T04:53:35;17.90;99.90
41944;DHT22;27636;52.610;13.244;2022-08-02T04:58:38;17.60;99.90
41944;DHT22;27636;52.610;13.244;2022-08-02T05:03:44;17.80;99.90
41944;DHT22;27636;52.610;13.244;2022-08-02T05:08:49;17.90;99.90
41944;DHT22;27636;52.610;13.244;2022-08-02T05:13:55;17.80;99.90
41944;DHT22;27636;52.610;13.244;2022-08-02T05:19:02;19.00;99.90
41944;DHT22;27636;52.610;13.244;2022-08-02T05:24:06;21.30;99.90
41944;DHT22;27636;52.610;13.244;2022-08-02T05:29:09;23.10;99.90
41944;DHT22;27636;52.610;13.244;2022-08-02T05:34:14;24.60;93.60
41944;DHT22;27636;52.610;13.244;2022-08-02T05:39:17;25.80;86.70
41944;DHT22;27636;52.610;13.244;2022-08-02T05:44:21;27.20;78.90
41944;DHT22;27636;52.610;13.244;2022-08-02T05:49:25;27.80;75.30
41944;DHT22;27636;52.610;13.244;2022-08-02T05:54:35;29.00;69.80
41944;DHT22;27636;52.610;13.244;2022-08-02T05:59:50;29.10;68.40
41944;DHT22;27636;52.610;13.244;2022-08-02T06:05:02;29.30;64.90
41944;DHT22;27636;52.610;13.244;2022-08-02T06:10:15;30.00;62.30
41944;DHT22;27636;52.610;13.244;2022-08-02T06:15:21;30.60;58.90
41944;DHT22;27636;52.610;13.244;2022-08-02T06:20:26;30.50;59.10
41944;DHT22;27636;52.610;13.244;2022-08-02T06:25:37;31.00;56.70
41944;DHT22;27636;52.610;13.244;2022-08-02T06:30:51;31.00;55.50
41944;DHT22;27636;52.610;13.244;2022-08-02T06:36:02;30.60;56.90
41944;DHT22;27636;52.610;13.244;2022-08-02T06:41:08;29.20;60.60
41944;DHT22;27636;52.610;13.244;2022-08-02T06:46:14;29.00;58.60
41944;DHT22;27636;52.610;13.244;2022-08-02T06:51:39;30.10;54.70
41944;DHT22;27636;52.610;13.244;2022-08-02T06:56:42;30.40;55.40
41944;DHT22;27636;52.610;13.244;2022-08-02T07:01:46;29.70;56.80
41944;DHT22;27636;52.610;13.244;2022-08-02T07:06:50;29.70;56.70
41944;DHT22;27636;52.610;13.244;2022-08-02T07:11:54;29.50;58.00
41944;DHT22;27636;52.610;13.244;2022-08-02T07:16:57;29.70;54.50
41944;DHT22;27636;52.610;13.244;2022-08-02T07:22:04;30.40;54.80
41944;DHT22;27636;52.610;13.244;2022-08-02T07:27:08;30.70;53.20
41944;DHT22;27636;52.610;13.244;2022-08-02T07:32:15;31.90;53.20
41944;DHT22;27636;52.610;13.244;2022-08-02T07:37:20;30.90;52.80
41944;DHT22;27636;52.610;13.244;2022-08-02T07:42:44;31.50;52.20
41944;DHT22;27636;52.610;13.244;2022-08-02T07:47:48;31.90;51.60
41944;DHT22;27636;52.610;13.244;2022-08-02T07:52:52;31.30;49.60
41944;DHT22;27636;52.610;13.244;2022-08-02T07:57:59;31.50;51.90
41944;DHT22;27636;52.610;13.244;2022-08-02T08:03:03;31.40;49.40
41944;DHT22;27636;52.610;13.244;2022-08-02T08:08:07;31.50;50.30
41944;DHT22;27636;52.610;13.244;2022-08-02T08:13:18;30.50;53.90
41944;DHT22;27636;52.610;13.244;2022-08-02T08:18:22;30.40;52.20
41944;DHT22;27636;52.610;13.244;2022-08-02T08:23:26;31.40;50.90
41944;DHT22;27636;52.610;13.244;2022-08-02T08:28:29;31.20;52.40
41944;DHT22;27636;52.610;13.244;2022-08-02T08:33:33;32.30;48.70
41944;DHT22;27636;52.610;13.244;2022-08-02T08:38:37;32.30;47.70
41944;DHT22;27636;52.610;13.244;2022-08-02T08:43:45;31.20;50.60
41944;DHT22;27636;52.610;13.244;2022-08-02T08:48:58;31.60;50.10
41944;DHT22;27636;52.610;13.244;2022-08-02T08:54:05;31.70;48.80
41944;DHT22;27636;52.610;13.244;2022-08-02T08:59:09;32.10;50.30
41944;DHT22;27636;52.610;13.244;2022-08-02T09:04:12;32.40;51.70
41944;DHT22;27636;52.610;13.244;2022-08-02T09:09:17;32.50;47.80
41944;DHT22;27636;52.610;13.244;2022-08-02T09:14:28;32.20;50.10
41944;DHT22;27636;52.610;13.244;2022-08-02T09:19:31;31.00;49.00
41944;DHT22;27636;52.610;13.244;2022-08-02T09:24:47;31.80;49.70
41944;DHT22;27636;52.610;13.244;2022-08-02T09:29:53;31.90;49.00
41944;DHT22;27636;52.610;13.244;2022-08-02T09:35:29;31.20;49.60
41944;DHT22;27636;52.610;13.244;2022-08-02T09:40:54;31.10;53.30
41944;DHT22;27636;52.610;13.244;2022-08-02T09:45:57;32.10;49.20
41944;DHT22;27636;52.610;13.244;2022-08-02T09:51:00;33.20;47.50
41944;DHT22;27636;52.610;13.244;2022-08-02T09:56:05;32.30;50.50
41944;DHT22;27636;52.610;13.244;2022-08-02T10:01:30;32.50;47.50
41944;DHT22;27636;52.610;13.244;2022-08-02T10:06:41;32.80;48.10
41944;DHT22;27636;52.610;13.244;2022-08-02T10:11:46;31.40;49.60
41944;DHT22;27636;52.610;13.244;2022-08-02T10:16:52;31.70;48.70
41944;DHT22;27636;52.610;13.244;2022-08-02T10:22:01;31.10;51.00
41944;DHT22;27636;52.610;13.244;2022-08-02T10:27:14;31.60;48.50
41944;DHT22;27636;52.610;13.244;2022-08-02T10:32:21;31.70;51.70
41944;DHT22;27636;52.610;13.244;2022-08-02T10:37:28;31.40;49.30
41944;DHT22;27636;52.610;13.244;2022-08-02T10:42:46;31.50;50.60
41944;DHT22;27636;52.610;13.244;2022-08-02T10:47:58;32.00;49.60
41944;DHT22;27636;52.610;13.244;2022-08-02T10:53:18;31.50;50.40
41944;DHT22;27636;52.610;13.244;2022-08-02T10:58:24;32.00;47.50
41944;DHT22;27636;52.610;13.244;2022-08-02T11:03:39;32.00;46.30
41944;DHT22;27636;52.610;13.244;2022-08-02T11:08:43;31.20;50.80
41944;DHT22;27636;52.610;13.244;2022-08-02T11:14:06;31.40;47.60
41944;DHT22;27636;52.610;13.244;2022-08-02T11:19:10;30.30;49.30
41944;DHT22;27636;52.610;13.244;2022-08-02T11:24:28;31.40;47.50
41944;DHT22;27636;52.610;13.244;2022-08-02T11:29:38;31.80;49.70
41944;DHT22;27636;52.610;13.244;2022-08-02T11:34:42;32.10;47.10
41944;DHT22;27636;52.610;13.244;2022-08-02T11:39:49;31.80;48.10
41944;DHT22;27636;52.610;13.244;2022-08-02T11:44:55;31.90;46.50
41944;DHT22;27636;52.610;13.244;2022-08-02T11:50:06;32.50;46.00
41944;DHT22;27636;52.610;13.244;2022-08-02T11:55:10;32.00;46.10
41944;DHT22;27636;52.610;13.244;2022-08-02T12:00:17;31.20;47.40
41944;DHT22;27636;52.610;13.244;2022-08-02T12:05:22;31.80;48.20
41944;DHT22;27636;52.610;13.244;2022-08-02T12:10:49;31.60;45.70
41944;DHT22;27636;52.610;13.244;2022-08-02T12:15:53;31.30;47.10
41944;DHT22;27636;52.610;13.244;2022-08-02T12:21:22;31.90;46.90
41944;DHT22;27636;52.610;13.244;2022-08-02T12:26:25;32.10;44.30
41944;DHT22;27636;52.610;13.244;2022-08-02T12:31:40;32.30;47.60
41944;DHT22;27636;52.610;13.244;2022-08-02T12:37:02;33.00;45.00
41944;DHT22;27636;52.610;13.244;2022-08-02T12:42:09;33.20;43.40
41944;DHT22;27636;52.610;13.244;2022-08-02T12:47:15;33.20;47.00
41944;DHT22;27636;52.610;13.244;2022-08-02T12:52:20;32.70;45.50
41944;DHT22;27636;52.610;13.244;2022-08-02T12:57:23;30.90;43.10
41944;DHT22;27636;52.610;13.244;2022-08-02T13:02:29;32.10;44.90
41944;DHT22;27636;52.610;13.244;2022-08-02T13:07:32;31.90;45.10
41944;DHT22;27636;52.610;13.244;2022-08-02T13:12:36;31.20;46.10
41944;DHT22;27636;52.610;13.244;2022-08-02T13:17:43;31.30;44.10
41944;DHT22;27636;52.610;13.244;2022-08-02T13:22:46;31.10;43.90
41944;DHT22;27636;52.610;13.244;2022-08-02T13:27:55;31.50;48.70
41944;DHT22;27636;52.610;13.244;2022-08-02T13:32:59;31.80;45.10
41944;DHT22;27636;52.610;13.244;2022-08-02T13:38:04;30.90;46.20
41944;DHT22;27636;52.610;13.244;2022-08-02T13:43:08;30.40;46.50
41944;DHT22;27636;52.610;13.244;2022-08-02T13:48:13;29.90;46.60
41944;DHT22;27636;52.610;13.244;2022-08-02T13:53:20;30.10;49.40
41944;DHT22;27636;52.610;13.244;2022-08-02T13:58:23;31.00;50.00
41944;DHT22;27636;52.610;13.244;2022-08-02T14:03:28;31.00;45.70
41944;DHT22;27636;52.610;13.244;2022-08-02T14:08:51;30.80;45.60
41944;DHT22;27636;52.610;13.244;2022-08-02T14:13:55;30.60;45.40
41944;DHT22;27636;52.610;13.244;2022-08-02T14:18:59;30.80;46.00
41944;DHT22;27636;52.610;13.244;2022-08-02T14:24:03;30.80;47.90
41944;DHT22;27636;52.610;13.244;2022-08-02T14:29:06;30.40;48.80
41944;DHT22;27636;52.610;13.244;2022-08-02T14:34:11;30.60;48.60
41944;DHT22;27636;52.610;13.244;2022-08-02T14:39:14;30.40;45.50
41944;DHT22;27636;52.610;13.244;2022-08-02T14:44:17;30.40;46.10
41944;DHT22;27636;52.610;13.244;2022-08-02T14:49:22;30.20;49.20
41944;DHT22;27636;52.610;13.244;2022-08-02T14:54:28;31.10;48.20
41944;DHT22;27636;52.610;13.244;2022-08-02T14:59:33;30.20;46.90
41944;DHT22;27636;52.610;13.244;2022-08-02T15:04:37;30.40;47.70
41944;DHT22;27636;52.610;13.244;2022-08-02T15:09:45;30.80;49.90
41944;DHT22;27636;52.610;13.244;2022-08-02T15:14:48;30.80;47.10
41944;DHT22;27636;52.610;13.244;2022-08-02T15:19:52;30.40;47.30
41944;DHT22;27636;52.610;13.244;2022-08-02T15:25:00;30.30;49.10
41944;DHT22;27636;52.610;13.244;2022-08-02T15:30:04;30.30;48.90
41944;DHT22;27636;52.610;13.244;2022-08-02T15:35:09;29.90;49.20
41944;DHT22;27636;52.610;13.244;2022-08-02T15:40:12;29.80;50.50
41944;DHT22;27636;52.610;13.244;2022-08-02T15:45:15;29.70;50.30
41944;DHT22;27636;52.610;13.244;2022-08-02T15:50:20;29.50;47.40
41944;DHT22;27636;52.610;13.244;2022-08-02T15:55:24;29.30;49.80
41944;DHT22;27636;52.610;13.244;2022-08-02T16:00:27;29.20;55.10
41944;DHT22;27636;52.610;13.244;2022-08-02T16:05:33;29.10;52.70
41944;DHT22;27636;52.610;13.244;2022-08-02T16:10:37;29.20;50.10
41944;DHT22;27636;52.610;13.244;2022-08-02T16:15:40;29.00;55.80
41944;DHT22;27636;52.610;13.244;2022-08-02T16:20:44;28.70;52.40
41944;DHT22;27636;52.610;13.244;2022-08-02T16:25:48;28.70;53.60
41944;DHT22;27636;52.610;13.244;2022-08-02T16:30:51;28.50;52.80
41944;DHT22;27636;52.610;13.244;2022-08-02T16:36:14;28.40;51.40
41944;DHT22;27636;52.610;13.244;2022-08-02T16:41:22;28.60;54.50
41944;DHT22;27636;52.610;13.244;2022-08-02T16:46:45;28.60;50.70
41944;DHT22;27636;52.610;13.244;2022-08-02T16:51:54;28.60;53.80
41944;DHT22;27636;52.610;13.244;2022-08-02T16:56:57;28.40;56.20
41944;DHT22;27636;52.610;13.244;2022-08-02T17:02:01;27.90;54.10
41944;DHT22;27636;52.610;13.244;2022-08-02T17:07:21;27.50;54.60
41944;DHT22;27636;52.610;13.244;2022-08-02T17:12:44;27.00;59.50
41944;DHT22;27636;52.610;13.244;2022-08-02T17:17:53;26.80;62.80
41944;DHT22;27636;52.610;13.244;2022-08-02T17:22:57;26.40;59.40
41944;DHT22;27636;52.610;13.244;2022-08-02T17:28:03;26.10;65.00
41944;DHT22;27636;52.610;13.244;2022-08-02T17:33:06;25.90;72.70
41944;DHT22;27636;52.610;13.244;2022-08-02T17:38:11;25.60;73.50
41944;DHT22;27636;52.610;13.244;2022-08-02T17:43:19;25.40;78.10
41944;DHT22;27636;52.610;13.244;2022-08-02T17:48:23;25.10;77.90
41944;DHT22;27636;52.610;13.244;2022-08-02T17:53:40;24.80;79.20
41944;DHT22;27636;52.610;13.244;2022-08-02T17:58:43;24.50;81.70
41944;DHT22;27636;52.610;13.244;2022-08-02T18:03:55;24.20;85.60
41944;DHT22;27636;52.610;13.244;2022-08-02T18:09:01;23.90;80.70
41944;DHT22;27636;52.610;13.244;2022-08-02T18:14:07;23.70;87.30
41944;DHT22;27636;52.610;13.244;2022-08-02T18:19:11;23.40;82.10
41944;DHT22;27636;52.610;13.244;2022-08-02T18:24:20;23.10;85.10
41944;DHT22;27636;52.610;13.244;2022-08-02T18:29:45;22.90;90.10
41944;DHT22;27636;52.610;13.244;2022-08-02T18:34:49;22.50;91.90
41944;DHT22;27636;52.610;13.244;2022-08-02T18:39:54;22.30;93.50
41944;DHT22;27636;52.610;13.244;2022-08-02T18:44:57;22.10;93.60
41944;DHT22;27636;52.610;13.244;2022-08-02T18:50:01;21.90;96.20
41944;DHT22;27636;52.610;13.244;2022-08-02T18:55:07;21.70;95.30
41944;DHT22;27636;52.610;13.244;2022-08-02T19:00:19;21.50;96.40
41944;DHT22;27636;52.610;13.244;2022-08-02T19:05:27;21.30;99.90
41944;DHT22;27636;52.610;13.244;2022-08-02T19:10:52;21.20;98.70
41944;DHT22;27636;52.610;13.244;2022-08-02T19:15:58;21.00;99.90
41944;DHT22;27636;52.610;13.244;2022-08-02T19:21:01;20.80;99.90
41944;DHT22;27636;52.610;13.244;2022-08-02T19:26:10;20.60;99.90
41944;DHT22;27636;52.610;13.244;2022-08-02T19:31:17;20.50;99.90
41944;DHT22;27636;52.610;13.244;2022-08-02T19:36:21;20.30;99.90
41944;DHT22;27636;52.610;13.244;2022-08-02T19:41:28;20.10;99.90
41944;DHT22;27636;52.610;13.244;2022-08-02T19:46:49;19.90;99.90
41944;DHT22;27636;52.610;13.244;2022-08-02T19:51:53;19.70;99.90
41944;DHT22;27636;52.610;13.244;2022-08-02T19:56:59;19.60;99.90
41944;DHT22;27636;52.610;13.244;2022-08-02T20:02:02;19.50;99.90
41944;DHT22;27636;52.610;13.244;2022-08-02T20:07:05;19.40;99.90
41944;DHT22;27636;52.610;13.244;2022-08-02T20:12:10;19.30;99.90
41944;DHT22;27636;52.610;13.244;2022-08-02T20:17:13;19.20;99.90
41944;DHT22;27636;52.610;13.244;2022-08-02T20:22:17;19.20;99.90
41944;DHT22;27636;52.610;13.244;2022-08-02T20:27:21;19.10;99.90
41944;DHT22;27636;52.610;13.244;2022-08-02T20:32:29;19.00;99.90
41944;DHT22;27636;52.610;13.244;2022-08-02T20:37:32;19.00;99.90
41944;DHT22;27636;52.610;13.244;2022-08-02T20:42:57;18.90;99.90
41944;DHT22;27636;52.610;13.244;2022-08-02T20:48:02;18.90;99.90
41944;DHT22;27636;52.610;13.244;2022-08-02T20:53:06;18.70;99.90
41944;DHT22;27636;52.610;13.244;2022-08-02T20:58:28;18.80;99.90
41944;DHT22;27636;52.610;13.244;2022-08-02T21:03:33;18.50;99.90
41944;DHT22;27636;52.610;13.244;2022-08-02T21:08:42;18.40;99.90
41944;DHT22;27636;52.610;13.244;2022-08-02T21:13:50;18.30;99.90
41944;DHT22;27636;52.610;13.244;2022-08-02T21:19:11;18.10;99.90
41944;DHT22;27636;52.610;13.244;2022-08-02T21:24:14;18.00;99.90
41944;DHT22;27636;52.610;13.244;2022-08-02T21:29:20;17.90;99.90
41944;DHT22;27636;52.610;13.244;2022-08-02T21:34:23;17.90;99.90
41944;DHT22;27636;52.610;13.244;2022-08-02T21:39:29;17.90;99.90
41944;DHT22;27636;52.610;13.244;2022-08-02T21:44:36;17.80;99.90
41944;DHT22;27636;52.610;13.244;2022-08-02T21:49:42;17.80;99.90
41944;DHT22;27636;52.610;13.244;2022-08-02T21:55:06;17.80;99.90
41944;DHT22;27636;52.610;13.244;2022-08-02T22:00:18;17.90;99.90
41944;DHT22;27636;52.610;13.244;2022-08-02T22:05:31;17.80;99.90
41944;DHT22;27636;52.610;13.244;2022-08-02T22:10:39;17.90;99.90
41944;DHT22;27636;52.610;13.244;2022-08-02T22:16:03;17.80;99.90
41944;DHT22;27636;52.610;13.244;2022-08-02T22:21:07;17.80;99.90
41944;DHT22;27636;52.610;13.244;2022-08-02T22:26:18;18.10;99.90
41944;DHT22;27636;52.610;13.244;2022-08-02T22:31:24;18.10;99.90
41944;DHT22;27636;52.610;13.244;2022-08-02T22:36:44;18.20;99.90
41944;DHT22;27636;52.610;13.244;2022-08-02T22:41:48;18.20;99.90
41944;DHT22;27636;52.610;13.244;2022-08-02T22:47:10;18.30;99.90
41944;DHT22;27636;52.610;13.244;2022-08-02T22:52:17;18.30;99.90
41944;DHT22;27636;52.610;13.244;2022-08-02T22:57:22;18.30;99.90
41944;DHT22;27636;52.610;13.244;2022-08-02T23:02:34;18.30;99.90
41944;DHT22;27636;52.610;13.244;2022-08-02T23:07:40;18.40;99.90
41944;DHT22;27636;52.610;13.244;2022-08-02T23:12:43;18.50;99.90
41944;DHT22;27636;52.610;13.244;2022-08-02T23:17:47;18.60;99.90
41944;DHT22;27636;52.610;13.244;2022-08-02T23:23:09;18.60;99.90
41944;DHT22;27636;52.610;13.244;2022-08-02T23:28:13;18.60;99.90
41944;DHT22;27636;52.610;13.244;2022-08-02T23:33:18;18.60;99.90
41944;DHT22;27636;52.610;13.244;2022-08-02T23:38:22;18.40;99.90
41944;DHT22;27636;52.610;13.244;2022-08-02T23:43:25;18.40;99.90
41944;DHT22;27636;52.610;13.244;2022-08-02T23:48:30;18.30;99.90
41944;DHT22;27636;52.610;13.244;2022-08-02T23:53:34;18.30;99.90
41944;DHT22;27636;52.610;13.244;2022-08-02T23:58:40;18.10;99.90
